createdAt,value
2018-09-06T00:01:37.987Z,24.10
2018-09-06T00:04:06.265Z,24.02
2018-09-06T00:06:34.452Z,24.18
2018-09-06T00:09:02.654Z,23.02
2018-09-06T00:11:30.885Z,23.42
2018-09-06T00:13:59.120Z,22.93
2018-09-06T00:16:27.338Z,23.95
2018-09-06T00:18:55.597Z,25.20
2018-09-06T00:21:23.813Z,23.70
2018-09-06T00:23:52.077Z,23.47
2018-09-06T00:26:20.336Z,24.20
2018-09-06T00:28:48.617Z,22.10
2018-09-06T00:31:16.825Z,22.67
2018-09-06T00:33:45.099Z,22.42
2018-09-06T00:36:13.333Z,22.05
2018-09-06T00:38:41.583Z,20.45
2018-09-06T00:41:09.823Z,19.60
2018-09-06T00:43:38.076Z,18.60
2018-09-06T00:46:06.531Z,19.67
2018-09-06T00:48:34.726Z,20.00
2018-09-06T00:51:02.902Z,19.48
2018-09-06T00:53:31.151Z,19.80
2018-09-06T00:55:59.319Z,18.55
2018-09-06T00:58:27.548Z,18.10
2018-09-06T01:00:55.960Z,17.32
2018-09-06T01:03:24.150Z,19.00
2018-09-06T01:05:52.332Z,17.87
2018-09-06T01:08:20.556Z,17.97
2018-09-06T01:10:48.760Z,17.32
2018-09-06T01:13:16.949Z,18.90
2018-09-06T01:15:45.163Z,18.53
2018-09-06T01:18:13.376Z,18.33
2018-09-06T01:20:41.610Z,18.98
2018-09-06T01:23:09.788Z,17.83
2018-09-06T01:25:43.415Z,18.40
2018-09-06T01:28:11.628Z,19.27
2018-09-06T01:30:39.885Z,19.37
2018-09-06T01:33:08.072Z,18.20
2018-09-06T01:35:36.316Z,17.63
2018-09-06T01:38:04.497Z,17.90
2018-09-06T01:40:32.681Z,17.30
2018-09-06T01:43:00.917Z,17.33
2018-09-06T01:45:29.165Z,17.60
2018-09-06T01:47:57.383Z,17.17
2018-09-06T01:50:25.537Z,16.50
2018-09-06T01:52:53.809Z,16.87
2018-09-06T01:55:22.057Z,16.10
2018-09-06T01:57:50.321Z,17.67
2018-09-06T02:00:18.556Z,17.17
2018-09-06T02:02:46.879Z,16.93
2018-09-06T02:05:19.356Z,18.37
2018-09-06T02:07:47.608Z,17.73
2018-09-06T02:10:15.816Z,17.63
2018-09-06T02:12:44.016Z,18.63
2018-09-06T02:15:12.281Z,19.63
2018-09-06T02:17:40.455Z,18.93
2018-09-06T02:20:08.631Z,21.27
2018-09-06T02:22:36.840Z,23.97
2018-09-06T02:25:05.289Z,25.47
2018-09-06T02:27:33.487Z,26.73
2018-09-06T02:30:01.765Z,26.70
2018-09-06T02:32:29.965Z,28.63
2018-09-06T02:34:58.290Z,33.50
2018-09-06T02:37:26.760Z,33.30
2018-09-06T02:39:55.061Z,38.93
2018-09-06T02:42:23.317Z,37.93
2018-09-06T02:44:51.554Z,38.63
2018-09-06T02:47:19.756Z,37.80
2018-09-06T02:49:53.400Z,40.00
2018-09-06T02:52:21.673Z,39.10
2018-09-06T02:54:49.883Z,40.08
2018-09-06T02:57:18.090Z,39.40
2018-09-06T02:59:47.168Z,39.13
2018-09-06T03:02:15.450Z,41.60
2018-09-06T03:04:43.973Z,40.87
2018-09-06T03:07:12.177Z,42.13
2018-09-06T03:09:40.391Z,44.60
2018-09-06T03:12:09.690Z,45.03
2018-09-06T03:14:37.925Z,47.53
2018-09-06T03:17:06.180Z,50.23
2018-09-06T03:19:34.372Z,49.60
2018-09-06T03:22:02.568Z,50.43
2018-09-06T03:24:30.765Z,52.63
2018-09-06T03:26:58.994Z,52.63
2018-09-06T03:29:27.195Z,52.87
2018-09-06T03:31:55.392Z,53.40
2018-09-06T03:34:23.610Z,51.70
2018-09-06T03:36:51.825Z,50.37
2018-09-06T03:39:20.011Z,52.30
2018-09-06T03:41:48.207Z,51.90
2018-09-06T03:44:16.386Z,51.47
2018-09-06T03:46:44.569Z,50.83
2018-09-06T03:49:12.796Z,51.00
2018-09-06T03:51:40.954Z,52.17
2018-09-06T03:54:09.256Z,51.80
2018-09-06T03:56:37.475Z,54.87
2018-09-06T03:59:05.809Z,52.77
2018-09-06T04:01:34.060Z,52.90
2018-09-06T04:04:02.241Z,53.43
2018-09-06T04:06:30.433Z,54.97
2018-09-06T04:08:58.671Z,52.73
2018-09-06T04:11:26.833Z,53.87
2018-09-06T04:13:55.181Z,54.30
2018-09-06T04:16:23.460Z,55.00
2018-09-06T04:18:51.687Z,53.67
2018-09-06T04:21:19.988Z,53.13
2018-09-06T04:23:48.152Z,51.57
2018-09-06T04:26:16.337Z,53.50
2018-09-06T04:28:44.497Z,52.87
2018-09-06T04:31:12.681Z,53.87
2018-09-06T04:33:41.035Z,50.03
2018-09-06T04:36:09.299Z,51.03
2018-09-06T04:38:37.408Z,54.07
2018-09-06T04:41:05.633Z,53.53
2018-09-06T04:43:33.959Z,50.87
2018-09-06T04:46:02.127Z,53.27
2018-09-06T04:48:30.328Z,52.67
2018-09-06T04:50:58.546Z,50.27
2018-09-06T04:53:26.718Z,49.07
2018-09-06T04:55:54.906Z,49.13
2018-09-06T04:58:23.132Z,50.33
2018-09-06T05:00:51.330Z,49.43
2018-09-06T05:03:19.467Z,52.00
2018-09-06T05:05:47.705Z,53.67
2018-09-06T05:08:15.906Z,54.00
2018-09-06T05:10:44.185Z,52.37
2018-09-06T05:13:12.431Z,54.73
2018-09-06T05:15:40.652Z,54.83
2018-09-06T05:18:08.843Z,52.70
2018-09-06T05:20:37.140Z,60.47
2018-09-06T05:23:05.831Z,56.13
2018-09-06T05:25:34.307Z,56.37
2018-09-06T05:28:02.476Z,55.03
2018-09-06T05:30:30.715Z,55.17
2018-09-06T05:32:58.911Z,51.47
2018-09-06T05:35:27.107Z,52.70
2018-09-06T05:37:55.313Z,52.13
2018-09-06T05:40:23.598Z,52.83
2018-09-06T05:42:51.809Z,54.50
2018-09-06T05:45:19.994Z,52.83
2018-09-06T05:47:53.609Z,54.03
2018-09-06T05:50:21.822Z,52.67
2018-09-06T05:52:50.057Z,54.23
2018-09-06T05:55:18.364Z,54.40
2018-09-06T05:57:46.531Z,53.53
2018-09-06T06:00:20.040Z,54.13
2018-09-06T06:02:48.813Z,53.27
2018-09-06T06:05:17.074Z,51.47
2018-09-06T06:07:56.710Z,52.07
2018-09-06T06:10:24.933Z,51.63
2018-09-06T06:12:53.471Z,50.80
2018-09-06T06:15:21.676Z,51.70
2018-09-06T06:17:49.870Z,50.60
2018-09-06T06:20:18.107Z,52.17
2018-09-06T06:22:46.411Z,46.87
2018-09-06T06:25:14.616Z,49.27
2018-09-06T06:27:42.816Z,51.00
2018-09-06T06:30:11.037Z,49.43
2018-09-06T06:32:39.281Z,50.93
2018-09-06T06:35:07.495Z,49.40
2018-09-06T06:37:35.714Z,49.40
2018-09-06T06:40:03.910Z,47.77
2018-09-06T06:42:32.158Z,51.23
2018-09-06T06:45:00.339Z,48.50
2018-09-06T06:47:28.591Z,48.63
2018-09-06T06:49:56.800Z,46.33
2018-09-06T06:52:25.073Z,50.30
2018-09-06T06:54:53.269Z,51.17
2018-09-06T06:57:21.457Z,48.47
2018-09-06T06:59:49.678Z,47.50
2018-09-06T07:02:17.892Z,47.57
2018-09-06T07:04:46.069Z,45.30
2018-09-06T07:07:14.325Z,45.37
2018-09-06T07:09:42.537Z,44.57
2018-09-06T07:12:10.833Z,46.80
2018-09-06T07:14:39.045Z,39.93
2018-09-06T07:17:07.345Z,35.97
2018-09-06T07:19:35.623Z,35.47
2018-09-06T07:22:03.859Z,35.57
2018-09-06T07:24:32.101Z,35.57
2018-09-06T07:27:00.323Z,35.27
2018-09-06T07:29:28.607Z,33.57
2018-09-06T07:31:56.800Z,34.10
2018-09-06T07:34:24.992Z,33.50
2018-09-06T07:36:53.175Z,34.90
2018-09-06T07:39:21.411Z,33.40
2018-09-06T07:41:49.618Z,30.97
2018-09-06T07:44:17.828Z,31.90
2018-09-06T07:46:46.140Z,30.27
2018-09-06T07:49:14.315Z,30.47
2018-09-06T07:51:42.535Z,30.77
2018-09-06T07:54:10.742Z,30.93
2018-09-06T07:56:38.946Z,32.63
2018-09-06T07:59:07.177Z,30.63
2018-09-06T08:01:35.381Z,30.60
2018-09-06T08:04:03.621Z,31.77
2018-09-06T08:06:31.797Z,31.67
2018-09-06T08:09:00.013Z,29.40
2018-09-06T08:11:28.213Z,31.00
2018-09-06T08:13:56.365Z,31.07
2018-09-06T08:16:24.603Z,32.33
2018-09-06T08:18:52.877Z,32.90
2018-09-06T08:21:21.090Z,31.33
2018-09-06T08:23:49.345Z,32.37
2018-09-06T08:26:17.601Z,31.03
2018-09-06T08:28:45.892Z,28.80
2018-09-06T08:31:14.217Z,31.47
2018-09-06T08:33:42.325Z,29.73
2018-09-06T08:36:10.545Z,27.50
2018-09-06T08:38:38.780Z,28.83
2018-09-06T08:41:07.030Z,29.17
2018-09-06T08:43:35.222Z,30.03
2018-09-06T08:46:03.412Z,27.33
2018-09-06T08:48:31.565Z,29.13
2018-09-06T08:50:59.791Z,27.70
2018-09-06T08:53:27.982Z,29.10
2018-09-06T08:55:56.186Z,26.87
2018-09-06T08:58:24.460Z,28.50
2018-09-06T09:00:58.020Z,26.50
2018-09-06T09:03:26.199Z,25.13
2018-09-06T09:05:54.462Z,23.53
2018-09-06T09:08:22.658Z,22.43
2018-09-06T09:10:50.843Z,21.97
2018-09-06T09:13:19.104Z,22.87
2018-09-06T09:15:47.300Z,20.77
2018-09-06T09:18:15.533Z,22.30
2018-09-06T09:20:43.788Z,21.12
2018-09-06T09:23:12.229Z,22.75
2018-09-06T09:25:40.462Z,21.40
2018-09-06T09:28:08.678Z,20.35
2018-09-06T09:30:36.912Z,19.67
2018-09-06T09:33:05.231Z,21.37
2018-09-06T09:35:33.469Z,20.70
2018-09-06T09:38:01.721Z,21.25
2018-09-06T09:40:29.894Z,20.68
2018-09-06T09:42:58.100Z,17.70
2018-09-06T09:45:26.309Z,13.15
2018-09-06T09:47:54.526Z,11.43
2018-09-06T09:52:50.200Z,14.13
2018-09-06T09:55:18.438Z,10.75
2018-09-06T09:57:46.696Z,10.13
2018-09-06T10:00:14.885Z,9.95
2018-09-06T10:02:48.609Z,9.73
2018-09-06T10:05:22.333Z,12.43
2018-09-06T10:07:56.337Z,15.23
2018-09-06T10:10:24.748Z,17.48
2018-09-06T10:12:52.981Z,15.18
2018-09-06T10:15:21.225Z,15.98
2018-09-06T10:17:49.431Z,18.73
2018-09-06T10:20:17.604Z,22.20
2018-09-06T10:22:45.781Z,21.75
2018-09-06T10:25:13.999Z,21.73
2018-09-06T10:27:42.172Z,24.05
2018-09-06T10:30:10.345Z,23.65
2018-09-06T10:32:38.530Z,27.55
2018-09-06T10:35:07.034Z,31.55
2018-09-06T10:37:35.228Z,33.40
2018-09-06T10:40:03.522Z,35.08
2018-09-06T10:42:31.648Z,33.08
2018-09-06T10:44:59.851Z,33.98
2018-09-06T10:47:28.042Z,33.35
2018-09-06T10:49:56.224Z,35.38
2018-09-06T10:52:24.459Z,35.30
2018-09-06T10:54:52.667Z,35.75
2018-09-06T10:57:20.903Z,36.93
2018-09-06T10:59:49.092Z,37.23
2018-09-06T11:02:17.301Z,31.85
2018-09-06T11:04:45.588Z,31.93
2018-09-06T11:07:13.844Z,33.60
2018-09-06T11:09:42.042Z,34.95
2018-09-06T11:12:10.255Z,35.48
2018-09-06T11:14:38.430Z,34.25
2018-09-06T11:17:06.611Z,32.05
2018-09-06T11:19:34.829Z,35.00
2018-09-06T11:22:03.135Z,35.63
2018-09-06T11:24:31.334Z,36.68
2018-09-06T11:26:59.516Z,37.98
2018-09-06T11:29:27.755Z,37.20
2018-09-06T11:31:55.982Z,38.73
2018-09-06T11:34:24.256Z,37.98
2018-09-06T11:36:52.440Z,38.25
2018-09-06T11:39:20.654Z,42.67
2018-09-06T11:41:48.882Z,41.73
2018-09-06T11:44:17.109Z,42.62
2018-09-06T11:46:45.362Z,42.05
2018-09-06T11:49:13.544Z,43.02
2018-09-06T11:51:41.770Z,40.73
2018-09-06T11:54:09.976Z,41.05
2018-09-06T11:56:38.173Z,41.63
2018-09-06T11:59:06.364Z,41.55
2018-09-06T12:01:34.558Z,43.02
2018-09-06T12:04:02.898Z,40.23
2018-09-06T12:06:31.131Z,41.48
2018-09-06T12:08:59.294Z,42.45
2018-09-06T12:11:27.551Z,40.20
2018-09-06T12:13:55.732Z,42.85
2018-09-06T12:16:23.925Z,42.73
2018-09-06T12:18:52.127Z,40.17
2018-09-06T12:21:20.340Z,45.05
2018-09-06T12:23:48.539Z,45.73
2018-09-06T12:26:16.727Z,45.38
2018-09-06T12:28:44.950Z,44.40
2018-09-06T12:31:13.144Z,48.33
2018-09-06T12:33:41.480Z,46.75
2018-09-06T12:36:09.690Z,47.08
2018-09-06T12:38:37.941Z,48.33
2018-09-06T12:41:06.247Z,46.98
2018-09-06T12:43:34.448Z,44.95
2018-09-06T12:46:02.628Z,46.60
2018-09-06T12:48:30.976Z,46.08
2018-09-06T12:50:59.280Z,46.58
2018-09-06T12:53:27.501Z,42.27
2018-09-06T12:55:55.721Z,40.98
2018-09-06T12:58:23.919Z,36.50
2018-09-06T13:00:53.240Z,35.75
2018-09-06T13:03:21.596Z,36.03
2018-09-06T13:05:50.300Z,35.80
2018-09-06T13:08:18.519Z,35.98
2018-09-06T13:10:46.833Z,34.15
2018-09-06T13:13:15.063Z,35.35
2018-09-06T13:15:43.255Z,34.98
2018-09-06T13:18:11.515Z,35.13
2018-09-06T13:20:39.718Z,33.40
2018-09-06T13:23:07.912Z,34.33
2018-09-06T13:25:36.100Z,33.35
2018-09-06T13:28:04.357Z,31.80
2018-09-06T13:30:32.523Z,30.05
2018-09-06T13:33:00.735Z,27.60
2018-09-06T13:35:28.951Z,25.82
2018-09-06T13:37:57.098Z,26.33
2018-09-06T13:40:25.316Z,26.82
2018-09-06T13:42:53.500Z,27.13
2018-09-06T13:45:21.721Z,27.50
2018-09-06T13:47:49.915Z,27.98
2018-09-06T13:50:18.113Z,27.95
2018-09-06T13:52:46.318Z,28.23
2018-09-06T13:55:14.537Z,28.20
2018-09-06T13:57:42.756Z,28.52
2018-09-06T14:00:10.988Z,31.10
2018-09-06T14:02:39.255Z,30.35
2018-09-06T14:05:07.917Z,32.10
2018-09-06T14:07:36.055Z,34.55
2018-09-06T14:10:04.433Z,34.78
2018-09-06T14:12:32.624Z,38.15
2018-09-06T14:15:00.830Z,38.28
2018-09-06T14:17:29.008Z,37.23
2018-09-06T14:19:57.211Z,37.75
2018-09-06T14:22:25.408Z,38.08
2018-09-06T14:24:53.674Z,35.33
2018-09-06T14:27:21.904Z,34.55
2018-09-06T14:29:50.121Z,36.15
2018-09-06T14:32:18.344Z,36.42
2018-09-06T14:34:46.528Z,39.27
2018-09-06T14:37:15.122Z,37.40
2018-09-06T14:39:43.841Z,33.98
2018-09-06T14:42:12.077Z,35.50
2018-09-06T14:44:40.321Z,31.55
2018-09-06T14:47:08.668Z,32.55
2018-09-06T14:49:37.218Z,33.65
2018-09-06T14:52:05.864Z,31.90
2018-09-06T14:54:34.124Z,31.37
2018-09-06T14:57:02.354Z,37.28
2018-09-06T14:59:30.579Z,35.08
2018-09-06T15:01:58.885Z,33.88
2018-09-06T15:04:27.075Z,33.25
2018-09-06T15:06:55.303Z,32.13
2018-09-06T15:09:23.562Z,33.02
2018-09-06T15:11:51.823Z,32.38
2018-09-06T15:14:20.062Z,32.80
2018-09-06T15:16:48.276Z,30.95
2018-09-06T15:19:16.811Z,32.05
2018-09-06T15:21:45.037Z,31.48
2018-09-06T15:24:13.413Z,32.50
2018-09-06T15:26:41.654Z,31.70
2018-09-06T15:29:09.896Z,31.07
2018-09-06T15:31:38.146Z,32.40
2018-09-06T15:34:06.643Z,31.02
2018-09-06T15:36:34.876Z,30.15
2018-09-06T15:39:03.096Z,31.73
2018-09-06T15:41:31.305Z,29.70
2018-09-06T15:43:59.493Z,32.88
2018-09-06T15:46:27.708Z,32.33
2018-09-06T15:48:55.954Z,33.28
2018-09-06T15:51:24.166Z,29.92
2018-09-06T15:53:52.445Z,30.62
2018-09-06T15:56:20.655Z,30.75
2018-09-06T15:58:48.827Z,31.55
2018-09-06T16:01:17.222Z,31.00
2018-09-06T16:03:45.468Z,32.33
2018-09-06T16:06:13.603Z,29.90
2018-09-06T16:08:41.800Z,28.95
2018-09-06T16:11:10.064Z,27.98
2018-09-06T16:13:38.287Z,27.45
2018-09-06T16:16:06.473Z,26.60
2018-09-06T16:18:34.677Z,26.27
2018-09-06T16:21:02.924Z,22.48
2018-09-06T16:23:31.123Z,21.73
2018-09-06T16:25:59.306Z,21.40
2018-09-06T16:28:27.771Z,21.97
2018-09-06T16:30:56.021Z,21.52
2018-09-06T16:33:24.236Z,20.80
2018-09-06T16:35:52.491Z,22.05
2018-09-06T16:38:20.721Z,23.15
2018-09-06T16:40:48.942Z,23.32
2018-09-06T16:43:17.222Z,25.95
2018-09-06T16:45:45.466Z,25.15
2018-09-06T16:48:13.735Z,25.85
2018-09-06T16:50:42.026Z,26.60
2018-09-06T16:53:10.319Z,26.17
2018-09-06T16:55:38.560Z,28.73
2018-09-06T16:58:06.814Z,27.67
2018-09-06T17:00:35.079Z,26.95
2018-09-06T17:03:03.287Z,28.52
2018-09-06T17:05:31.517Z,28.65
2018-09-06T17:07:59.860Z,27.85
2018-09-06T17:10:28.108Z,28.25
2018-09-06T17:12:56.430Z,25.70
2018-09-06T17:15:24.712Z,27.07
2018-09-06T17:17:52.929Z,27.40
2018-09-06T17:20:21.262Z,27.73
2018-09-06T17:22:49.504Z,27.62
2018-09-06T17:25:17.913Z,27.13
2018-09-06T17:27:46.251Z,27.45
2018-09-06T17:30:14.521Z,28.32
2018-09-06T17:32:43.624Z,27.98
2018-09-06T17:35:11.833Z,27.85
2018-09-06T17:37:40.996Z,29.30
2018-09-06T17:40:09.205Z,29.48
2018-09-06T17:42:37.400Z,29.12
2018-09-06T17:45:05.657Z,30.88
2018-09-06T17:47:33.978Z,29.35
2018-09-06T17:50:02.170Z,30.92
2018-09-06T17:52:30.469Z,35.25
2018-09-06T17:54:58.885Z,31.60
2018-09-06T17:57:27.105Z,29.48
2018-09-06T17:59:55.441Z,29.02
2018-09-06T18:02:23.654Z,28.12
2018-09-06T18:04:51.918Z,29.20
2018-09-06T18:07:20.170Z,27.77
2018-09-06T18:09:48.501Z,28.40
2018-09-06T18:12:16.787Z,29.53
2018-09-06T18:14:45.041Z,29.40
2018-09-06T18:17:13.286Z,28.77
2018-09-06T18:19:41.466Z,29.33
2018-09-06T18:22:09.784Z,27.90
2018-09-06T18:24:38.080Z,29.97
2018-09-06T18:27:06.416Z,29.40
2018-09-06T18:29:34.661Z,29.17
2018-09-06T18:32:02.913Z,30.63
2018-09-06T18:34:32.400Z,30.60
2018-09-06T18:37:00.761Z,32.33
2018-09-06T18:39:29.219Z,30.57
2018-09-06T18:42:02.612Z,30.70
2018-09-06T18:44:31.036Z,33.07
2018-09-06T18:46:59.485Z,30.13
2018-09-06T18:49:27.865Z,32.60
2018-09-06T18:51:56.087Z,33.17
2018-09-06T18:54:24.285Z,33.50
2018-09-06T18:56:52.515Z,31.70
2018-09-06T18:59:21.112Z,30.80
2018-09-06T19:01:49.360Z,30.23
2018-09-06T19:04:18.582Z,29.57
2018-09-06T19:06:46.927Z,29.63
2018-09-06T19:09:15.257Z,27.53
2018-09-06T19:11:43.450Z,27.63
2018-09-06T19:14:11.739Z,27.37
2018-09-06T19:16:40.079Z,26.80
2018-09-06T19:19:08.302Z,25.87
2018-09-06T19:21:36.507Z,27.40
2018-09-06T19:24:04.812Z,25.30
2018-09-06T19:26:33.163Z,26.87
2018-09-06T19:29:01.428Z,26.87
2018-09-06T19:31:29.765Z,26.43
2018-09-06T19:33:58.025Z,27.30
2018-09-06T19:36:26.267Z,28.37
2018-09-06T19:38:54.544Z,33.77
2018-09-06T19:41:22.904Z,28.30
2018-09-06T19:43:51.131Z,29.37
2018-09-06T19:46:19.326Z,28.03
2018-09-06T19:48:47.635Z,28.13
2018-09-06T19:51:15.924Z,27.80
2018-09-06T19:53:44.256Z,26.97
2018-09-06T19:56:12.645Z,26.97
2018-09-06T19:58:41.077Z,26.70
2018-09-06T20:01:09.296Z,27.00
2018-09-06T20:03:37.510Z,22.70
2018-09-06T20:06:05.766Z,21.63
2018-09-06T20:08:33.998Z,23.80
2018-09-06T20:11:02.317Z,21.40
2018-09-06T20:13:30.812Z,21.00
2018-09-06T20:15:59.164Z,19.70
2018-09-06T20:18:27.359Z,17.60
2018-09-06T20:20:55.716Z,14.07
2018-09-06T20:23:23.989Z,13.23
2018-09-06T20:25:52.276Z,11.33
2018-09-06T20:28:21.623Z,10.53
2018-09-06T20:30:49.756Z,10.13
2018-09-06T20:33:18.071Z,8.53
2018-09-06T20:35:46.273Z,8.87
2018-09-06T20:38:14.500Z,8.93
2018-09-06T20:40:42.825Z,8.70
2018-09-06T20:43:11.041Z,8.17
2018-09-06T20:45:39.392Z,9.00
2018-09-06T20:48:07.596Z,20.17
2018-09-06T20:50:36.154Z,9.83
2018-09-06T20:53:05.004Z,9.10
2018-09-06T20:55:33.553Z,9.27
2018-09-06T20:58:02.825Z,8.37
2018-09-06T21:00:31.013Z,7.63
2018-09-06T21:03:01.343Z,8.03
2018-09-06T21:05:29.684Z,7.77
2018-09-06T21:07:57.877Z,6.83
2018-09-06T21:10:26.243Z,7.20
2018-09-06T21:12:54.454Z,7.60
2018-09-06T21:15:22.712Z,7.27
2018-09-06T21:17:50.877Z,7.13
2018-09-06T21:20:19.084Z,7.67
2018-09-06T21:22:47.371Z,7.57
2018-09-06T21:25:15.557Z,7.37
2018-09-06T21:27:43.743Z,7.73
2018-09-06T21:30:11.981Z,7.40
2018-09-06T21:32:40.307Z,7.87
2018-09-06T21:35:08.539Z,8.50
2018-09-06T21:37:36.796Z,8.47
2018-09-06T21:40:05.009Z,8.60
2018-09-06T21:42:33.236Z,8.40
2018-09-06T21:45:01.419Z,9.23
2018-09-06T21:47:29.581Z,9.20
2018-09-06T21:49:57.774Z,9.23
2018-09-06T21:52:25.948Z,8.80
2018-09-06T21:54:54.173Z,9.50
2018-09-06T21:57:22.392Z,8.73
2018-09-06T21:59:50.648Z,9.47
2018-09-06T22:02:24.280Z,9.17
2018-09-06T22:04:52.469Z,9.13
2018-09-06T22:07:20.803Z,9.23
2018-09-06T22:09:49.013Z,9.00
2018-09-06T22:12:18.174Z,10.27
2018-09-06T22:14:47.789Z,9.43
2018-09-06T22:17:16.241Z,9.60
2018-09-06T22:19:44.750Z,9.50
2018-09-06T22:22:12.916Z,9.83
2018-09-06T22:24:41.603Z,8.67
2018-09-06T22:27:09.839Z,9.43
2018-09-06T22:29:38.019Z,9.40
2018-09-06T22:32:06.265Z,8.67
2018-09-06T22:34:34.446Z,9.67
2018-09-06T22:37:02.689Z,8.87
2018-09-06T22:39:30.909Z,9.33
2018-09-06T22:41:59.228Z,8.73
2018-09-06T22:44:27.454Z,9.43
2018-09-06T22:46:55.656Z,8.10
2018-09-06T22:49:23.829Z,8.20
2018-09-06T22:51:52.048Z,8.10
2018-09-06T22:54:20.266Z,8.70
2018-09-06T22:56:48.769Z,8.03
2018-09-06T22:59:16.952Z,8.63
2018-09-06T23:01:45.144Z,8.47
2018-09-06T23:04:13.342Z,8.03
2018-09-06T23:06:41.543Z,8.03
2018-09-06T23:09:09.724Z,8.07
2018-09-06T23:11:37.897Z,7.17
2018-09-06T23:14:06.157Z,7.23
2018-09-06T23:16:34.364Z,7.10
2018-09-06T23:19:02.582Z,7.23
2018-09-06T23:21:30.785Z,6.80
2018-09-06T23:23:59.018Z,6.77
2018-09-06T23:26:27.212Z,7.07
2018-09-06T23:28:55.417Z,7.47
2018-09-06T23:31:23.684Z,6.93
2018-09-06T23:33:51.846Z,7.43
2018-09-06T23:36:20.081Z,7.80
2018-09-06T23:38:48.275Z,7.60
2018-09-06T23:41:16.536Z,7.70
2018-09-06T23:43:44.739Z,8.17
2018-09-06T23:46:12.993Z,6.93
2018-09-06T23:48:41.235Z,6.83
2018-09-06T23:51:09.451Z,6.97
2018-09-06T23:53:37.621Z,8.20
2018-09-06T23:56:05.790Z,7.10
2018-09-06T23:58:33.972Z,7.93
